Vera Y Pintado, Argentina
Current Conditions -  °F | °C
As of 9:00 PM on Tuesday 21 Oct 2014 (Local Time) from SUSO Reporting Station
Clear Clear  
Wind Chill: 22°   Ceiling: Unl
Heat Index: 22°   Visibility: 6mi
Dew Point: 14°   Wind: 5mph
Humidity: 60%   Direction: 60°ENE
Pressure: 30.06"   Gusts: NA
Location:  30.15°S, 60.32°W
Report Text: SUSO 220000Z 06004KT CAVOK 22/14 Q1018
Loading
Personal Weather Stations






























Interactive Weather Map
Tropical Storm Tracking
New forecast layout! Learn more

10-Day Weather Forecast

Advertisements
Track Severe Weather on mobile